createdAt,value
2018-09-27T00:01:20.027Z,5.50
2018-09-27T00:03:48.592Z,4.17
2018-09-27T00:06:17.163Z,4.87
2018-09-27T00:08:45.749Z,4.97
2018-09-27T00:11:14.320Z,3.27
2018-09-27T00:13:43.090Z,6.17
2018-09-27T00:16:11.672Z,3.43
2018-09-27T00:18:40.228Z,5.70
2018-09-27T00:21:08.829Z,5.90
2018-09-27T00:23:37.667Z,4.87
2018-09-27T00:26:06.564Z,3.73
2018-09-27T00:28:35.113Z,6.23
2018-09-27T00:31:03.733Z,8.83
2018-09-27T00:33:32.289Z,7.73
2018-09-27T00:36:00.852Z,5.70
2018-09-27T00:38:29.488Z,7.57
2018-09-27T00:40:58.077Z,5.97
2018-09-27T00:43:26.619Z,9.00
2018-09-27T00:45:55.191Z,5.00
2018-09-27T00:48:23.736Z,6.87
2018-09-27T00:50:52.306Z,7.03
2018-09-27T00:53:20.864Z,2.60
2018-09-27T00:55:49.424Z,4.43
2018-09-27T00:58:17.955Z,5.07
2018-09-27T01:00:46.503Z,4.00
2018-09-27T01:03:15.077Z,6.40
2018-09-27T01:05:43.629Z,4.70
2018-09-27T01:08:12.263Z,5.27
2018-09-27T01:10:40.816Z,4.93
2018-09-27T01:13:09.407Z,5.10
2018-09-27T01:15:38.055Z,5.30
2018-09-27T01:18:06.936Z,3.70
2018-09-27T01:20:35.508Z,7.03
2018-09-27T01:23:04.025Z,6.90
2018-09-27T01:25:32.600Z,5.70
2018-09-27T01:28:01.187Z,7.67
2018-09-27T01:30:29.776Z,6.17
2018-09-27T01:32:58.315Z,8.07
2018-09-27T01:35:26.995Z,8.23
2018-09-27T01:37:55.571Z,7.20
2018-09-27T01:40:24.127Z,6.47
2018-09-27T01:42:52.731Z,6.83
2018-09-27T01:45:21.321Z,8.03
2018-09-27T01:47:50.033Z,6.73
2018-09-27T01:50:18.554Z,9.33
2018-09-27T01:52:47.134Z,4.27
2018-09-27T01:55:15.714Z,5.83
2018-09-27T01:57:44.264Z,6.03
2018-09-27T02:00:12.828Z,10.03
2018-09-27T02:02:41.383Z,7.23
2018-09-27T02:05:10.015Z,7.70
2018-09-27T02:07:38.538Z,6.77
2018-09-27T02:10:07.158Z,5.90
2018-09-27T02:12:35.708Z,7.57
2018-09-27T02:15:04.378Z,6.13
2018-09-27T02:17:32.968Z,8.80
2018-09-27T02:20:01.494Z,8.70
2018-09-27T02:22:30.052Z,9.40
2018-09-27T02:24:58.591Z,6.30
2018-09-27T02:27:27.123Z,5.57
2018-09-27T02:29:55.669Z,7.90
2018-09-27T02:32:24.233Z,5.13
2018-09-27T02:34:52.791Z,6.73
2018-09-27T02:37:21.347Z,4.90
2018-09-27T02:39:49.900Z,4.30
2018-09-27T02:42:18.755Z,4.03
2018-09-27T02:44:47.327Z,7.63
2018-09-27T02:47:15.913Z,5.93
2018-09-27T02:49:44.518Z,5.00
2018-09-27T02:52:13.056Z,4.87
2018-09-27T02:54:41.607Z,7.07
2018-09-27T02:57:10.190Z,5.73
2018-09-27T02:59:38.745Z,4.37
2018-09-27T03:02:07.298Z,4.90
2018-09-27T03:04:35.849Z,5.10
2018-09-27T03:07:04.409Z,4.13
2018-09-27T03:09:33.150Z,7.00
2018-09-27T03:12:01.711Z,5.83
2018-09-27T03:14:30.243Z,7.40
2018-09-27T03:16:58.782Z,4.87
2018-09-27T03:19:27.324Z,9.53
2018-09-27T03:21:55.862Z,3.43
2018-09-27T03:24:24.377Z,6.40
2018-09-27T03:26:52.915Z,6.30
2018-09-27T03:29:21.424Z,5.10
2018-09-27T03:31:49.967Z,6.07
2018-09-27T03:34:18.597Z,6.13
2018-09-27T03:36:47.183Z,6.03
2018-09-27T03:39:15.745Z,5.73
2018-09-27T03:41:44.305Z,6.37
2018-09-27T03:44:12.864Z,5.67
2018-09-27T03:46:41.620Z,4.83
2018-09-27T03:49:10.267Z,6.27
2018-09-27T03:51:39.003Z,8.27
2018-09-27T03:54:07.527Z,4.63
2018-09-27T03:56:36.083Z,5.20
2018-09-27T03:59:04.686Z,6.20
2018-09-27T04:01:33.488Z,6.00
2018-09-27T04:04:02.197Z,6.17
2018-09-27T04:06:30.791Z,4.40
2018-09-27T04:08:59.693Z,6.43
2018-09-27T04:11:28.269Z,3.67
2018-09-27T04:13:56.842Z,4.50
2018-09-27T04:16:25.380Z,3.63
2018-09-27T04:18:53.934Z,7.43
2018-09-27T04:21:22.553Z,7.43
2018-09-27T04:23:51.096Z,2.73
2018-09-27T04:26:19.751Z,6.30
2018-09-27T04:28:48.303Z,8.73
2018-09-27T04:31:16.885Z,12.33
2018-09-27T04:33:45.514Z,6.63
2018-09-27T04:36:14.001Z,10.67
2018-09-27T04:38:42.522Z,4.13
2018-09-27T04:41:11.052Z,6.17
2018-09-27T04:43:39.612Z,3.90
2018-09-27T04:46:08.176Z,9.67
2018-09-27T04:48:36.691Z,5.53
2018-09-27T04:51:05.283Z,3.93
2018-09-27T04:53:33.878Z,8.13
2018-09-27T04:56:02.409Z,4.13
2018-09-27T04:58:30.960Z,5.63
2018-09-27T05:00:59.517Z,6.07
2018-09-27T05:03:28.082Z,5.73
2018-09-27T05:05:56.626Z,6.17
2018-09-27T05:08:25.163Z,6.83
2018-09-27T05:10:53.788Z,6.43
2018-09-27T05:13:22.423Z,4.67
2018-09-27T05:15:51.012Z,5.60
2018-09-27T05:18:19.599Z,5.67
2018-09-27T05:20:48.142Z,7.23
2018-09-27T05:23:16.762Z,3.73
2018-09-27T05:25:45.340Z,7.10
2018-09-27T05:28:13.864Z,9.20
2018-09-27T05:30:42.460Z,6.40
2018-09-27T05:33:10.966Z,5.40
2018-09-27T05:35:39.505Z,7.10
2018-09-27T05:38:08.057Z,9.13
2018-09-27T05:40:36.611Z,8.70
2018-09-27T05:43:05.147Z,5.90
2018-09-27T05:45:33.720Z,6.87
2018-09-27T05:48:02.214Z,6.30
2018-09-27T05:50:30.776Z,6.30
2018-09-27T05:52:59.352Z,10.00
2018-09-27T05:55:27.907Z,6.20
2018-09-27T05:57:56.440Z,7.40
2018-09-27T06:00:24.981Z,5.80
2018-09-27T06:02:53.513Z,10.13
2018-09-27T06:05:22.066Z,4.63
2018-09-27T06:07:50.597Z,8.63
2018-09-27T06:10:19.157Z,11.97
2018-09-27T06:12:47.715Z,7.63
2018-09-27T06:15:16.288Z,3.73
2018-09-27T06:17:44.812Z,7.13
2018-09-27T06:20:13.733Z,6.80
2018-09-27T06:22:42.274Z,5.77
2018-09-27T06:25:10.856Z,5.50
2018-09-27T06:27:39.398Z,5.90
2018-09-27T06:30:08.220Z,11.43
2018-09-27T06:32:36.739Z,10.57
2018-09-27T06:35:05.639Z,10.30
2018-09-27T06:37:34.143Z,9.50
2018-09-27T06:40:02.739Z,7.17
2018-09-27T06:42:31.292Z,8.10
2018-09-27T06:44:59.854Z,8.37
2018-09-27T06:47:28.406Z,6.27
2018-09-27T06:49:56.962Z,6.13
2018-09-27T06:52:25.516Z,5.37
2018-09-27T06:54:54.117Z,9.90
2018-09-27T06:57:22.639Z,5.70
2018-09-27T06:59:51.261Z,7.20
2018-09-27T07:02:19.790Z,7.43
2018-09-27T07:04:48.371Z,6.47
2018-09-27T07:07:16.935Z,10.50
2018-09-27T07:09:45.462Z,4.50
2018-09-27T07:12:14.126Z,6.27
2018-09-27T07:14:42.699Z,5.60
2018-09-27T07:17:11.186Z,5.20
2018-09-27T07:19:39.822Z,4.73
2018-09-27T07:22:08.366Z,6.37
2018-09-27T07:24:36.931Z,6.97
2018-09-27T07:27:05.489Z,5.90
2018-09-27T07:29:34.048Z,8.87
2018-09-27T07:32:02.643Z,4.13
2018-09-27T07:34:31.188Z,7.13
2018-09-27T07:36:59.732Z,4.47
2018-09-27T07:39:28.287Z,3.40
2018-09-27T07:41:56.867Z,2.67
2018-09-27T07:44:25.391Z,4.63
2018-09-27T07:46:54.049Z,7.37
2018-09-27T07:49:22.593Z,5.20
2018-09-27T07:51:51.134Z,6.20
2018-09-27T07:54:19.771Z,4.83
2018-09-27T07:56:48.256Z,5.47
2018-09-27T07:59:16.821Z,4.63
2018-09-27T08:01:45.372Z,2.73
2018-09-27T08:04:14.902Z,2.43
2018-09-27T08:06:43.419Z,3.13
2018-09-27T08:09:11.950Z,4.20
2018-09-27T08:11:40.625Z,3.67
2018-09-27T08:14:09.454Z,5.30
2018-09-27T08:16:37.992Z,3.80
2018-09-27T08:19:06.555Z,2.73
2018-09-27T08:21:35.100Z,3.10
2018-09-27T08:24:03.695Z,8.77
2018-09-27T08:26:32.215Z,4.47
2018-09-27T08:29:00.761Z,1.87
2018-09-27T08:31:29.320Z,4.43
2018-09-27T08:33:57.868Z,2.27
2018-09-27T08:36:26.398Z,2.07
2018-09-27T08:38:54.970Z,2.70
2018-09-27T08:41:23.537Z,2.83
2018-09-27T08:43:52.052Z,6.47
2018-09-27T08:46:20.587Z,3.87
2018-09-27T08:48:49.139Z,4.50
2018-09-27T08:51:17.673Z,2.40
2018-09-27T08:53:46.220Z,2.10
2018-09-27T08:56:15.113Z,2.77
2018-09-27T08:58:43.516Z,3.83
2018-09-27T09:01:12.057Z,2.83
2018-09-27T09:03:40.712Z,4.30
2018-09-27T09:06:09.225Z,3.07
2018-09-27T09:08:38.097Z,6.27
2018-09-27T09:11:06.757Z,2.73
2018-09-27T09:13:35.384Z,2.57
2018-09-27T09:16:04.352Z,2.77
2018-09-27T09:18:33.009Z,3.90
2018-09-27T09:21:01.664Z,3.80
2018-09-27T09:23:30.217Z,6.73
2018-09-27T09:25:58.769Z,6.23
2018-09-27T09:28:27.289Z,3.37
2018-09-27T09:30:55.849Z,2.27
2018-09-27T09:33:24.692Z,3.53
2018-09-27T09:35:53.298Z,4.40
2018-09-27T09:38:21.859Z,3.57
2018-09-27T09:40:50.392Z,3.03
2018-09-27T09:43:18.969Z,2.13
2018-09-27T09:45:47.557Z,1.70
2018-09-27T09:48:16.121Z,2.53
2018-09-27T09:50:44.665Z,2.03
2018-09-27T09:53:13.218Z,1.80
2018-09-27T09:55:41.755Z,2.00
2018-09-27T09:58:10.423Z,1.50
2018-09-27T10:00:38.959Z,1.93
2018-09-27T10:03:08.391Z,1.83
2018-09-27T10:05:36.964Z,1.73
2018-09-27T10:08:05.676Z,3.23
2018-09-27T10:10:34.228Z,1.63
2018-09-27T10:13:02.780Z,2.47
2018-09-27T10:15:31.461Z,2.83
2018-09-27T10:18:00.251Z,1.60
2018-09-27T10:20:28.894Z,3.17
2018-09-27T10:22:57.530Z,5.13
2018-09-27T10:25:26.052Z,1.50
2018-09-27T10:27:54.607Z,1.70
2018-09-27T10:30:23.203Z,2.87
2018-09-27T10:32:51.727Z,2.03
2018-09-27T10:35:20.293Z,3.53
2018-09-27T10:37:48.922Z,4.60
2018-09-27T10:40:17.448Z,2.87
2018-09-27T10:42:46.028Z,2.00
2018-09-27T10:45:14.584Z,2.20
2018-09-27T10:47:43.321Z,2.83
2018-09-27T10:50:11.935Z,1.67
2018-09-27T10:52:40.490Z,2.80
2018-09-27T10:55:09.084Z,5.87
2018-09-27T10:57:37.689Z,1.60
2018-09-27T11:00:06.332Z,2.40
2018-09-27T11:02:34.848Z,1.70
2018-09-27T11:05:03.419Z,3.43
2018-09-27T11:07:31.963Z,1.77
2018-09-27T11:10:00.505Z,3.17
2018-09-27T11:12:29.057Z,2.03
2018-09-27T11:14:57.594Z,2.33
2018-09-27T11:17:26.148Z,1.50
2018-09-27T11:19:54.656Z,2.80
2018-09-27T11:22:23.190Z,1.98
2018-09-27T11:24:51.743Z,3.08
2018-09-27T11:27:20.304Z,2.67
2018-09-27T11:29:54.285Z,5.25
2018-09-27T11:32:28.229Z,4.08
2018-09-27T11:34:56.914Z,4.58
2018-09-27T11:37:25.739Z,4.10
2018-09-27T11:39:54.294Z,4.73
2018-09-27T11:42:23.326Z,4.63
2018-09-27T11:44:51.989Z,3.43
2018-09-27T11:47:20.545Z,5.17
2018-09-27T11:49:49.097Z,4.20
2018-09-27T11:52:17.619Z,4.67
2018-09-27T11:54:46.163Z,3.67
2018-09-27T11:57:14.709Z,3.50
2018-09-27T11:59:43.231Z,5.40
2018-09-27T12:02:11.811Z,2.87
2018-09-27T12:04:40.327Z,5.37
2018-09-27T12:07:08.909Z,2.90
2018-09-27T12:09:37.456Z,5.13
2018-09-27T12:12:06.063Z,6.60
2018-09-27T12:14:34.588Z,5.20
2018-09-27T12:17:03.160Z,9.03
2018-09-27T12:19:31.767Z,4.70
2018-09-27T12:22:00.303Z,5.47
2018-09-27T12:24:28.882Z,5.45
2018-09-27T12:26:57.433Z,5.40
2018-09-27T12:29:25.957Z,5.35
2018-09-27T12:31:54.502Z,8.78
2018-09-27T12:34:23.175Z,4.00
2018-09-27T12:36:51.697Z,8.83
2018-09-27T12:39:20.257Z,6.57
2018-09-27T12:41:48.876Z,5.30
2018-09-27T12:44:17.490Z,6.58
2018-09-27T12:46:46.126Z,4.20
2018-09-27T12:49:14.588Z,9.65
2018-09-27T12:51:43.301Z,8.00
2018-09-27T12:54:11.744Z,5.70
2018-09-27T12:56:40.352Z,5.73
2018-09-27T12:59:09.085Z,11.03
2018-09-27T13:01:37.747Z,6.92
2018-09-27T13:04:06.340Z,9.55
2018-09-27T13:06:34.882Z,9.03
2018-09-27T13:09:04.186Z,10.72
2018-09-27T13:11:32.675Z,10.13
2018-09-27T13:14:01.211Z,7.20
2018-09-27T13:16:29.755Z,11.10
2018-09-27T13:18:58.297Z,10.10
2018-09-27T13:21:29.679Z,8.90
2018-09-27T13:23:58.316Z,6.97
2018-09-27T13:26:26.978Z,5.80
2018-09-27T13:28:55.518Z,12.40
2018-09-27T13:31:24.121Z,7.87
2018-09-27T13:33:52.692Z,9.87
2018-09-27T13:36:21.261Z,9.60
2018-09-27T13:38:49.848Z,8.03
2018-09-27T13:41:18.429Z,8.10
2018-09-27T13:43:46.952Z,9.17
2018-09-27T13:46:16.177Z,8.83
2018-09-27T13:48:44.730Z,6.80
2018-09-27T13:51:13.284Z,9.60
2018-09-27T13:53:41.822Z,9.47
2018-09-27T13:56:10.384Z,12.03
2018-09-27T13:58:38.966Z,11.97
2018-09-27T14:01:07.574Z,10.93
2018-09-27T14:03:36.067Z,8.67
2018-09-27T14:06:04.728Z,6.70
2018-09-27T14:08:33.272Z,10.37
2018-09-27T14:11:01.805Z,10.27
2018-09-27T14:13:30.360Z,12.67
2018-09-27T14:15:58.924Z,10.53
2018-09-27T14:18:27.519Z,14.67
2018-09-27T14:20:56.112Z,11.23
2018-09-27T14:23:24.678Z,12.40
2018-09-27T14:25:53.278Z,13.73
2018-09-27T14:28:21.812Z,9.83
2018-09-27T14:30:50.472Z,11.13
2018-09-27T14:33:19.067Z,14.93
2018-09-27T14:35:47.746Z,12.70
2018-09-27T14:38:16.624Z,13.17
2018-09-27T14:40:45.213Z,12.13
2018-09-27T14:43:13.851Z,11.47
2018-09-27T14:45:42.563Z,11.93
2018-09-27T14:48:11.129Z,14.93
2018-09-27T14:50:39.671Z,14.97
2018-09-27T14:53:08.253Z,14.17
2018-09-27T14:55:36.828Z,16.70
2018-09-27T14:58:05.370Z,14.30
2018-09-27T15:00:33.983Z,15.87
2018-09-27T15:03:02.629Z,16.10
2018-09-27T15:05:31.177Z,15.90
2018-09-27T15:07:59.744Z,13.37
2018-09-27T15:10:28.468Z,15.97
2018-09-27T15:12:56.970Z,12.90
2018-09-27T15:15:26.071Z,15.27
2018-09-27T15:17:54.653Z,14.80
2018-09-27T15:20:23.251Z,13.50
2018-09-27T15:22:52.045Z,15.77
2018-09-27T15:25:20.639Z,17.97
2018-09-27T15:27:49.229Z,13.97
2018-09-27T15:30:18.541Z,11.63
2018-09-27T15:32:47.105Z,18.43
2018-09-27T15:35:15.661Z,13.70
2018-09-27T15:37:44.211Z,20.03
2018-09-27T15:40:12.766Z,14.67
2018-09-27T15:42:41.385Z,12.27
2018-09-27T15:45:09.954Z,14.60
2018-09-27T15:47:38.537Z,18.47
2018-09-27T15:50:07.337Z,15.50
2018-09-27T15:52:36.012Z,15.20
2018-09-27T15:55:04.638Z,20.67
2018-09-27T15:57:33.197Z,16.43
2018-09-27T16:00:01.847Z,12.90
2018-09-27T16:02:30.434Z,15.60
2018-09-27T16:04:59.088Z,12.70
2018-09-27T16:07:27.633Z,11.13
2018-09-27T16:09:56.224Z,12.73
2018-09-27T16:12:25.109Z,12.37
2018-09-27T16:14:53.805Z,14.90
2018-09-27T16:17:22.302Z,16.13
2018-09-27T16:19:50.859Z,14.67
2018-09-27T16:22:20.511Z,13.90
2018-09-27T16:24:49.051Z,12.43
2018-09-27T16:27:17.602Z,14.27
2018-09-27T16:29:46.213Z,11.20
2018-09-27T16:32:14.718Z,16.20
2018-09-27T16:34:43.897Z,13.80
2018-09-27T16:37:12.490Z,12.50
2018-09-27T16:39:41.049Z,11.07
2018-09-27T16:42:09.607Z,13.37
2018-09-27T16:44:38.169Z,14.93
2018-09-27T16:47:06.839Z,13.33
2018-09-27T16:49:35.523Z,10.73
2018-09-27T16:52:04.098Z,11.10
2018-09-27T16:54:32.632Z,14.13
2018-09-27T16:57:01.210Z,10.13
2018-09-27T16:59:29.815Z,16.43
2018-09-27T17:01:58.467Z,12.33
2018-09-27T17:04:26.983Z,15.87
2018-09-27T17:06:55.548Z,11.27
2018-09-27T17:09:24.216Z,15.87
2018-09-27T17:11:52.793Z,12.47
2018-09-27T17:14:21.369Z,14.73
2018-09-27T17:16:49.933Z,12.70
2018-09-27T17:19:18.513Z,14.57
2018-09-27T17:21:47.083Z,13.17
2018-09-27T17:24:15.765Z,13.20
2018-09-27T17:26:44.341Z,14.67
2018-09-27T17:29:12.955Z,12.83
2018-09-27T17:31:42.440Z,16.00
2018-09-27T17:34:10.998Z,16.57
2018-09-27T17:36:39.556Z,15.83
2018-09-27T17:39:08.541Z,16.77
2018-09-27T17:41:37.132Z,12.27
2018-09-27T17:44:05.715Z,14.03
2018-09-27T17:46:34.311Z,11.97
2018-09-27T17:49:02.842Z,12.17
2018-09-27T17:51:31.495Z,12.57
2018-09-27T17:54:00.160Z,13.40
2018-09-27T17:56:35.260Z,16.37
2018-09-27T17:59:04.048Z,15.63
2018-09-27T18:01:32.677Z,11.57
2018-09-27T18:04:01.534Z,18.23
2018-09-27T18:06:30.169Z,12.43
2018-09-27T18:08:58.778Z,18.57
2018-09-27T18:11:27.375Z,15.30
2018-09-27T18:13:56.297Z,15.60
2018-09-27T18:16:24.918Z,16.63
2018-09-27T18:18:53.526Z,15.47
2018-09-27T18:21:22.138Z,19.00
2018-09-27T18:23:50.771Z,16.63
2018-09-27T18:26:20.531Z,12.80
2018-09-27T18:28:49.315Z,16.37
2018-09-27T18:31:18.178Z,19.07
2018-09-27T18:33:46.759Z,15.13
2018-09-27T18:36:15.347Z,17.23
2018-09-27T18:38:44.005Z,17.07
2018-09-27T18:41:12.976Z,14.87
2018-09-27T18:43:41.537Z,16.80
2018-09-27T18:46:10.329Z,15.57
2018-09-27T18:48:38.960Z,13.07
2018-09-27T18:51:08.095Z,15.37
2018-09-27T18:53:37.018Z,13.43
2018-09-27T18:56:05.614Z,15.37
2018-09-27T18:58:34.243Z,15.03
2018-09-27T19:01:03.014Z,12.63
2018-09-27T19:03:31.654Z,14.70
2018-09-27T19:06:00.302Z,15.00
2018-09-27T19:08:28.976Z,11.40
2018-09-27T19:10:58.388Z,12.70
2018-09-27T19:13:27.139Z,18.00
2018-09-27T19:15:55.900Z,12.50
2018-09-27T19:18:24.595Z,16.93
2018-09-27T19:20:53.264Z,13.87
2018-09-27T19:23:22.088Z,16.87
2018-09-27T19:25:50.837Z,15.03
2018-09-27T19:28:20.590Z,16.20
2018-09-27T19:30:49.297Z,11.97
2018-09-27T19:33:17.881Z,8.57
2018-09-27T19:35:46.501Z,10.93
2018-09-27T19:38:15.105Z,11.73
2018-09-27T19:40:43.702Z,9.07
2018-09-27T19:43:12.504Z,10.73
2018-09-27T19:45:41.171Z,11.47
2018-09-27T19:48:09.914Z,9.73
2018-09-27T19:50:38.477Z,9.37
2018-09-27T19:53:07.193Z,10.67
2018-09-27T19:55:35.821Z,13.13
2018-09-27T19:58:04.471Z,11.50
2018-09-27T20:00:33.178Z,9.50
2018-09-27T20:03:01.737Z,10.20
2018-09-27T20:05:30.316Z,12.23
2018-09-27T20:07:58.907Z,9.83
2018-09-27T20:10:27.551Z,7.97
2018-09-27T20:12:56.139Z,10.07
2018-09-27T20:15:24.706Z,10.23
2018-09-27T20:17:53.260Z,10.20
2018-09-27T20:20:21.856Z,6.43
2018-09-27T20:22:50.441Z,7.90
2018-09-27T20:25:19.048Z,7.83
2018-09-27T20:27:47.672Z,9.57
2018-09-27T20:30:16.241Z,6.53
2018-09-27T20:32:44.785Z,11.73
2018-09-27T20:35:13.335Z,5.13
2018-09-27T20:37:41.923Z,6.53
2018-09-27T20:40:10.620Z,9.17
2018-09-27T20:42:39.252Z,7.03
2018-09-27T20:45:08.150Z,6.00
2018-09-27T20:47:36.756Z,10.23
2018-09-27T20:50:05.383Z,9.27
2018-09-27T20:52:33.971Z,7.20
2018-09-27T20:55:02.574Z,8.57
2018-09-27T20:57:31.133Z,8.43
2018-09-27T20:59:59.688Z,9.23
2018-09-27T21:02:28.290Z,7.40
2018-09-27T21:04:56.923Z,9.30
2018-09-27T21:07:25.462Z,10.40
2018-09-27T21:09:54.007Z,8.83
2018-09-27T21:12:22.613Z,8.43
2018-09-27T21:14:51.137Z,6.97
2018-09-27T21:17:19.740Z,9.57
2018-09-27T21:19:48.294Z,7.53
2018-09-27T21:22:16.831Z,5.27
2018-09-27T21:24:45.388Z,4.80
2018-09-27T21:27:13.943Z,5.93
2018-09-27T21:29:42.509Z,4.03
2018-09-27T21:32:11.084Z,6.67
2018-09-27T21:34:39.647Z,6.33
2018-09-27T21:37:08.248Z,5.40
2018-09-27T21:39:36.831Z,6.17
2018-09-27T21:42:05.460Z,6.97
2018-09-27T21:44:34.024Z,5.73
2018-09-27T21:47:02.592Z,10.10
2018-09-27T21:49:31.212Z,6.07
2018-09-27T21:51:59.763Z,7.63
2018-09-27T21:54:28.367Z,8.73
2018-09-27T21:56:56.952Z,9.30
2018-09-27T21:59:25.522Z,8.07
2018-09-27T22:01:54.071Z,7.07
2018-09-27T22:04:22.664Z,3.67
2018-09-27T22:06:51.198Z,4.17
2018-09-27T22:09:19.764Z,4.97
2018-09-27T22:11:48.303Z,4.00
2018-09-27T22:14:16.865Z,3.63
2018-09-27T22:16:45.429Z,8.70
2018-09-27T22:19:13.987Z,5.83
2018-09-27T22:21:42.564Z,6.13
2018-09-27T22:24:11.132Z,9.50
2018-09-27T22:26:39.684Z,8.80
2018-09-27T22:29:08.320Z,10.47
2018-09-27T22:31:36.909Z,8.30
2018-09-27T22:34:05.485Z,8.43
2018-09-27T22:36:34.104Z,8.43
2018-09-27T22:39:02.737Z,8.57
2018-09-27T22:41:31.297Z,6.27
2018-09-27T22:43:59.836Z,7.40
2018-09-27T22:46:28.428Z,5.33
2018-09-27T22:48:57.106Z,2.87
2018-09-27T22:51:25.627Z,4.93
2018-09-27T22:53:54.240Z,4.97
2018-09-27T22:56:22.865Z,2.50
2018-09-27T22:58:51.465Z,4.37
2018-09-27T23:01:20.065Z,6.10
2018-09-27T23:03:48.603Z,2.80
2018-09-27T23:06:17.153Z,4.93
2018-09-27T23:08:45.672Z,3.80
2018-09-27T23:11:14.208Z,4.63
2018-09-27T23:13:42.791Z,4.23
2018-09-27T23:16:11.373Z,5.33
2018-09-27T23:18:39.947Z,6.73
2018-09-27T23:21:08.553Z,4.00
2018-09-27T23:23:37.134Z,6.87
2018-09-27T23:26:05.801Z,3.10
2018-09-27T23:28:34.286Z,8.17
2018-09-27T23:31:02.918Z,4.93
2018-09-27T23:33:31.501Z,2.67
2018-09-27T23:36:00.091Z,9.17
2018-09-27T23:38:28.668Z,3.67
2018-09-27T23:40:57.227Z,6.37
2018-09-27T23:43:25.800Z,5.37
2018-09-27T23:45:54.362Z,6.27
2018-09-27T23:48:22.962Z,6.27
2018-09-27T23:50:51.601Z,9.23
2018-09-27T23:53:20.188Z,8.77
2018-09-27T23:55:48.743Z,7.37
2018-09-27T23:58:17.307Z,8.97
